Web Počasí Slunečno.cz™ (Podmínky, ePrivacy) používá cookies a personalizace pro reklamní účely. Pohybem po stránce vyjadřujete souhlas. Odejít

Aktuální počasí v Česku a ve světě - METAR

Seznam meteostanic umístěných nejčasteji na letišti v ČR a ve světě

Vyhledat místa podle abecedy:
A B C D E F G H I J K L M N O P Q R S T U V W X Y Z

Filtrovat:

ID stanice:
a/nebo
Název místa (fulltext):
 
Místo (ID)Naposledy načteno 
Wake Island (PWAK) 28.10.2021 12:53 UTC Zobrazit METAR
PWAK 281253Z AUTO 07011KT 9999 SCT018 27/25 A3000 RMK AO2 SLP165 $
Warsaw (EPWA) 28.10.2021 14:00 UTC Zobrazit METAR
EPWA 281400Z 17005KT 9999 FEW022 13/08 Q1024 NOSIG
Washington (KIAD) 28.10.2021 13:52 UTC Zobrazit METAR
KIAD 281352Z 00000KT 10SM BKN250 14/09 A2996 RMK AO2 SLP145 T01440089 $
Wellington (NZWN) 28.10.2021 14:00 UTC Zobrazit METAR
NZWN 281400Z AUTO 33006KT 8000 FEW006/// SCT010/// OVC014/// 15/14 Q1011 TEMPO BKN004
Windhoek (FYWH) 28.10.2021 11:00 UTC Zobrazit METAR
FYWH 281100Z 34013KT 9999 SCT040 25/14 Q1023 NOSIG
Wroclaw (EPWR) 28.10.2021 14:00 UTC Zobrazit METAR
EPWR 281400Z 14011KT CAVOK 16/08 Q1022
Reklama

Reklama


Newslettter

Počasí na Váš email

Každý den Vám pošleme předpověď
Emaily chodí ráno a bez reklamy



Odhlásit newsletter


Další české internetové stránky o počasí najdete v katalogu TOPlist - weby o počasí nebo vyhledejte na internetu, co jste tu na Počasí Slunečno Slunečnu zatím nenašli:
Reklama